Tropical Cyclones
[Index]
Main Index Home Page Stock Weather Photos Extreme Storms Discussion Storm News and Storm Chasing Reports Tropical Cyclones / Hurricanes / Typhoons Weather Data and Links Wild Fires / Bushfires Weather Observation Techniques Weather Picture Catalogue Tornado Pictures and Reports Stock Video Footage and DVDs for sale
Season 1966-1967 Tropical Cyclone DINAH Track Map
Season 1966-1967 Summaries: [BoM-AU] [JTWC-AU] [JTWC-SIO] [JTWC-SPAC] [JTWC-SH]
<<- Previous TC | BoM 1966-1967 Season | Next TC ->>

click for intensity scale information  Lat/long Grid: Show Hide

 Date Labels: Show Hide

Bureau of Meteorology Tropical Cyclone Data

Name: DINAH
Number: 415 / 196667_07

22 Jan 1967 23:00 UTC to 31 Jan 1967 23:00 UTC

    date/time    lat    long    hPa   cat  kts
1967-01-22 23   12.7   163.8   1001                     
1967-01-23 11   13.1   162.2    999                     
1967-01-23 23   13.8   161.0    998                     
1967-01-24 11   14.5   159.6    995    1                
1967-01-24 23   15.5   158.1    991    1                
1967-01-25 11   16.3   156.9    984    2                
1967-01-25 23   17.2   155.8    976    2                
1967-01-26 11   18.2   154.8    972    2                
1967-01-26 23   19.1   154.0    968    3                
1967-01-27 11   20.0   153.3    962    3                
1967-01-27 23   21.2   153.0    954    4                
1967-01-28 11   22.1   152.7    946    4                
1967-01-28 23   23.3   152.8    945    4                
1967-01-29 07   24.7   153.2    945    4                
1967-01-29 11   25.3   153.5    946    4                
1967-01-29 17   26.2   154.3    950    4                
1967-01-29 23   27.1   155.1    954    4                
1967-01-30 11   29.5   157.7    962    3                
1967-01-30 14   30.2   158.3    964    3                
1967-01-30 23   31.2   158.7    970    3                
1967-01-31 11   33.3   160.0    978    2                
1967-01-31 23   35.2   161.5    986    1                
Winds are 10-min average.

Tropical cyclone tracks developed by Michael Bath using data from the Bureau of Meteorology and Google Maps.


[Australian Severe Weather index] [Copyright Notice] [Email Contacts] [Search This Site] [Privacy Policy]
Document: tropical_cyclone_dinah.htm Updated: 30 May 2013